Time;durP1;ratioP1;P1;durP2;ratioP2;P2;SDS_P1;SDS_P2;PMS_P1;PMS_P2;Temp;Humidity;BMP_temperature;BMP_pressure;BME280_temperature;BME280_humidity;BME280_pressure;Samples;Min_cycle;Max_cycle;Signal;HPM_P1;HPM_P2
2022/04/16 00:01:55;;;;;;;3.10;2.33;;;;;;;;;;5035904;28;20972;-63
2022/04/16 00:04:22;;;;;;;3.03;2.40;;;;;;;;;;5035584;28;20417;-63
2022/04/16 00:06:48;;;;;;;3.07;2.33;;;;;;;;;;5034641;28;20505;-72
2022/04/16 00:09:14;;;;;;;4.60;2.50;;;;;;;;;;5035805;28;20521;-63
2022/04/16 00:11:41;;;;;;;3.70;2.70;;;;;;;;;;5035685;28;20442;-63
2022/04/16 00:14:07;;;;;;;2.17;1.93;;;;;;;;;;5035601;28;20452;-63
2022/04/16 00:16:33;;;;;;;2.83;2.07;;;;;;;;;;5035617;28;20473;-63
2022/04/16 00:18:59;;;;;;;4.03;2.47;;;;;;;;;;5035554;28;20945;-63
2022/04/16 00:21:25;;;;;;;2.53;2.33;;;;;;;;;;5035760;28;20854;-63
2022/04/16 00:23:53;;;;;;;2.80;2.60;;;;;;;;;;5035569;28;20399;-63
2022/04/16 00:26:20;;;;;;;2.73;2.10;;;;;;;;;;5035465;28;20506;-64
2022/04/16 00:28:46;;;;;;;3.30;2.37;;;;;;;;;;5035374;28;20440;-63
2022/04/16 00:31:14;;;;;;;2.60;2.23;;;;;;;;;;5035394;28;20893;-72
2022/04/16 00:33:40;;;;;;;3.83;2.67;;;;;;;;;;5035378;28;20409;-63
2022/04/16 00:36:06;;;;;;;2.80;2.30;;;;;;;;;;5035182;28;20450;-63
2022/04/16 00:38:32;;;;;;;3.20;2.47;;;;;;;;;;5035181;28;20799;-72
2022/04/16 00:41:00;;;;;;;2.30;2.00;;;;;;;;;;5035198;28;20410;-74
2022/04/16 00:43:29;;;;;;;2.40;2.20;;;;;;;;;;5035154;28;20415;-73
2022/04/16 00:45:56;;;;;;;2.43;2.20;;;;;;;;;;5035155;28;20405;-63
2022/04/16 00:48:22;;;;;;;3.27;2.50;;;;;;;;;;5035026;28;20423;-64
2022/04/16 00:50:50;;;;;;;2.10;1.90;;;;;;;;;;5034950;28;20924;-73
2022/04/16 00:53:16;;;;;;;3.10;2.50;;;;;;;;;;5035018;28;20403;-64
2022/04/16 00:55:42;;;;;;;2.83;2.30;;;;;;;;;;5034999;28;20411;-72
2022/04/16 00:58:08;;;;;;;4.07;2.47;;;;;;;;;;5034812;28;20495;-64
2022/04/16 01:00:34;;;;;;;2.70;1.97;;;;;;;;;;5034812;28;20826;-63
2022/04/16 01:03:00;;;;;;;3.30;2.40;;;;;;;;;;5034611;28;20815;-63
2022/04/16 01:05:27;;;;;;;4.23;2.50;;;;;;;;;;5034667;28;20494;-73
2022/04/16 01:07:53;;;;;;;3.43;2.50;;;;;;;;;;5034735;28;20505;-64
2022/04/16 01:10:26;;;;;;;3.20;2.40;;;;;;;;;;5034609;28;20406;-63
2022/04/16 01:12:52;;;;;;;2.50;2.30;;;;;;;;;;5034061;28;20458;-64
2022/04/16 01:15:20;;;;;;;2.70;2.30;;;;;;;;;;5034506;28;20506;-63
2022/04/16 01:17:47;;;;;;;3.53;2.70;;;;;;;;;;5034426;28;20516;-63
2022/04/16 01:20:13;;;;;;;2.73;2.47;;;;;;;;;;5034389;28;20422;-74
2022/04/16 01:22:40;;;;;;;5.10;2.80;;;;;;;;;;5034237;28;20472;-63
2022/04/16 01:25:07;;;;;;;3.67;2.70;;;;;;;;;;5034401;28;20417;-65
2022/04/16 01:27:35;;;;;;;2.73;2.47;;;;;;;;;;5034301;28;20948;-72
2022/04/16 01:30:02;;;;;;;3.90;2.63;;;;;;;;;;5034309;28;20398;-64
2022/04/16 01:32:29;;;;;;;2.30;2.10;;;;;;;;;;5034233;28;20399;-63
2022/04/16 01:34:55;;;;;;;2.70;2.50;;;;;;;;;;5034251;28;20413;-63
2022/04/16 01:37:23;;;;;;;2.37;2.00;;;;;;;;;;5034062;28;20474;-74
2022/04/16 01:39:49;;;;;;;2.40;2.17;;;;;;;;;;5034115;28;20403;-64
2022/04/16 01:42:15;;;;;;;2.93;2.43;;;;;;;;;;5034014;28;20444;-73
2022/04/16 01:44:43;;;;;;;4.37;2.33;;;;;;;;;;5033840;28;20807;-63
2022/04/16 01:47:10;;;;;;;3.00;2.57;;;;;;;;;;5033963;28;20402;-73
2022/04/16 01:49:37;;;;;;;4.07;2.53;;;;;;;;;;5033731;28;20418;-64
2022/04/16 01:52:03;;;;;;;9.20;2.60;;;;;;;;;;5033854;28;20473;-72
2022/04/16 01:54:29;;;;;;;2.93;2.63;;;;;;;;;;5033943;28;20493;-69
2022/04/16 01:56:56;;;;;;;3.00;2.60;;;;;;;;;;5033756;28;20560;-73
2022/04/16 01:59:25;;;;;;;3.67;2.40;;;;;;;;;;5033839;28;20441;-73
2022/04/16 02:01:51;;;;;;;3.63;2.90;;;;;;;;;;5033583;28;20529;-72
2022/04/16 02:04:17;;;;;;;3.40;2.57;;;;;;;;;;5033545;28;20406;-63
2022/04/16 02:06:43;;;;;;;2.53;2.07;;;;;;;;;;5033724;28;20430;-62
2022/04/16 02:09:09;;;;;;;2.60;2.07;;;;;;;;;;5033539;28;20492;-73
2022/04/16 02:11:35;;;;;;;3.63;2.47;;;;;;;;;;5033457;28;20792;-64
2022/04/16 02:14:02;;;;;;;5.50;2.43;;;;;;;;;;5033382;28;20410;-63
2022/04/16 02:16:28;;;;;;;3.30;2.40;;;;;;;;;;5033439;28;20940;-64
2022/04/16 02:18:54;;;;;;;4.17;2.57;;;;;;;;;;5033331;28;20812;-72
2022/04/16 02:21:22;;;;;;;4.20;2.43;;;;;;;;;;5033408;28;20401;-63
2022/04/16 02:23:51;;;;;;;3.30;2.60;;;;;;;;;;5032494;28;20450;-63
2022/04/16 02:26:20;;;;;;;3.43;2.57;;;;;;;;;;5033381;28;20406;-64
2022/04/16 02:28:47;;;;;;;4.40;3.03;;;;;;;;;;5033297;28;20472;-63
2022/04/16 02:31:13;;;;;;;3.40;2.73;;;;;;;;;;5033182;28;20407;-62
2022/04/16 02:33:39;;;;;;;5.53;2.80;;;;;;;;;;5033341;28;20414;-62
2022/04/16 02:36:05;;;;;;;3.30;2.20;;;;;;;;;;5033123;28;20406;-64
2022/04/16 02:38:31;;;;;;;3.93;2.30;;;;;;;;;;5033279;28;20411;-72
2022/04/16 02:40:57;;;;;;;3.00;2.70;;;;;;;;;;5033100;28;20418;-62
2022/04/16 02:43:23;;;;;;;3.47;2.90;;;;;;;;;;5033015;28;20406;-62
2022/04/16 02:48:34;;;;;;;3.13;2.83;;;;;;;;;;5033164;28;20481;-63
2022/04/16 02:51:00;;;;;;;2.40;2.20;;;;;;;;;;5033053;28;20554;-70
2022/04/16 02:53:26;;;;;;;3.90;2.83;;;;;;;;;;5033062;28;20517;-63
2022/04/16 02:55:55;;;;;;;4.83;2.93;;;;;;;;;;5032982;28;20399;-72
2022/04/16 02:58:21;;;;;;;5.07;3.37;;;;;;;;;;5032965;28;20421;-63
2022/04/16 03:00:47;;;;;;;3.50;3.17;;;;;;;;;;5032498;28;20421;-63
2022/04/16 03:03:13;;;;;;;3.90;3.00;;;;;;;;;;5032943;28;20752;-63
2022/04/16 03:05:39;;;;;;;3.63;2.73;;;;;;;;;;5032710;28;20469;-63
2022/04/16 03:08:07;;;;;;;4.00;3.17;;;;;;;;;;5033037;28;20402;-66
2022/04/16 03:10:33;;;;;;;3.10;2.60;;;;;;;;;;5031755;28;20415;-63
2022/04/16 03:12:59;;;;;;;3.70;3.03;;;;;;;;;;5032907;28;20493;-71
2022/04/16 03:18:10;;;;;;;3.43;3.10;;;;;;;;;;5032854;28;20469;-63
2022/04/16 03:20:37;;;;;;;3.97;2.80;;;;;;;;;;5032720;28;20430;-63
2022/04/16 03:23:03;;;;;;;3.20;2.80;;;;;;;;;;5032862;28;20418;-63
2022/04/16 03:25:30;;;;;;;4.87;2.83;;;;;;;;;;5032813;28;20407;-63
2022/04/16 03:27:56;;;;;;;3.77;2.77;;;;;;;;;;5032817;28;21011;-63
2022/04/16 03:30:23;;;;;;;3.50;2.90;;;;;;;;;;5032614;28;20921;-62
2022/04/16 03:32:49;;;;;;;3.33;3.03;;;;;;;;;;5032716;28;20809;-63
2022/04/16 03:35:18;;;;;;;3.30;2.53;;;;;;;;;;5034736;28;20401;-62
2022/04/16 03:37:44;;;;;;;3.53;2.87;;;;;;;;;;5036321;28;20462;-63
2022/04/16 03:40:10;;;;;;;3.10;2.80;;;;;;;;;;5036341;28;20403;-63
2022/04/16 03:42:44;;;;;;;4.20;2.90;;;;;;;;;;5036241;28;20410;-63
2022/04/16 03:45:15;;;;;;;4.80;3.10;;;;;;;;;;5036414;28;20405;-63
2022/04/16 03:47:41;;;;;;;3.60;3.13;;;;;;;;;;5036207;28;20444;-63
2022/04/16 03:50:07;;;;;;;3.47;2.83;;;;;;;;;;5036007;28;20426;-63
2022/04/16 03:52:40;;;;;;;3.20;2.83;;;;;;;;;;5036208;28;20399;-63
2022/04/16 04:00:35;;;;;;;3.90;3.00;;;;;;;;;;5035915;28;20476;-63
2022/04/16 04:03:02;;;;;;;3.17;2.80;;;;;;;;;;5035932;28;20468;-63
2022/04/16 04:05:28;;;;;;;3.67;3.27;;;;;;;;;;5035565;28;20458;-63
2022/04/16 04:07:54;;;;;;;3.20;2.80;;;;;;;;;;5035783;28;20399;-63
2022/04/16 04:10:20;;;;;;;4.83;3.30;;;;;;;;;;5035771;28;20757;-63
2022/04/16 04:12:46;;;;;;;3.90;3.40;;;;;;;;;;5035836;28;20406;-63
2022/04/16 04:15:12;;;;;;;4.10;3.33;;;;;;;;;;5035705;28;20411;-72
2022/04/16 04:17:38;;;;;;;4.33;3.23;;;;;;;;;;5035618;28;20474;-63
2022/04/16 04:20:04;;;;;;;4.20;3.40;;;;;;;;;;5035489;28;20541;-63
2022/04/16 04:22:31;;;;;;;3.37;2.80;;;;;;;;;;5035446;28;20410;-63
2022/04/16 04:24:57;;;;;;;4.53;3.53;;;;;;;;;;5035781;28;20798;-63
2022/04/16 04:27:23;;;;;;;4.50;2.90;;;;;;;;;;5035532;28;20445;-63
2022/04/16 04:29:49;;;;;;;4.10;3.03;;;;;;;;;;5035444;28;20444;-63
2022/04/16 04:32:15;;;;;;;3.27;2.40;;;;;;;;;;5035302;28;20793;-62
2022/04/16 04:34:41;;;;;;;5.53;2.90;;;;;;;;;;5035287;28;20502;-63
2022/04/16 04:37:07;;;;;;;6.47;3.00;;;;;;;;;;5035254;28;20557;-67
2022/04/16 04:39:33;;;;;;;4.43;3.17;;;;;;;;;;5035212;28;20390;-62
2022/04/16 04:41:59;;;;;;;5.17;3.20;;;;;;;;;;5035129;28;20455;-63
2022/04/16 04:44:25;;;;;;;3.60;2.80;;;;;;;;;;5035126;28;20411;-63
2022/04/16 04:46:51;;;;;;;4.47;3.20;;;;;;;;;;5034206;28;20417;-63
2022/04/16 04:49:17;;;;;;;4.70;3.53;;;;;;;;;;5034872;28;20415;-62
2022/04/16 04:51:44;;;;;;;4.93;3.50;;;;;;;;;;5034981;28;20497;-62
2022/04/16 04:54:10;;;;;;;5.83;3.73;;;;;;;;;;5034963;28;20413;-62
2022/04/16 04:56:37;;;;;;;4.20;3.17;;;;;;;;;;5034884;28;20454;-62
2022/04/16 04:59:03;;;;;;;3.30;2.90;;;;;;;;;;5034908;28;20414;-63
2022/04/16 05:01:30;;;;;;;5.10;3.40;;;;;;;;;;5034714;28;20455;-63
2022/04/16 05:03:56;;;;;;;4.97;3.50;;;;;;;;;;5034740;28;20501;-64
2022/04/16 05:06:22;;;;;;;4.27;3.73;;;;;;;;;;5034579;28;20816;-70
2022/04/16 05:08:48;;;;;;;3.73;3.33;;;;;;;;;;5034669;28;20441;-71
2022/04/16 05:11:14;;;;;;;5.70;3.50;;;;;;;;;;5033351;28;20423;-62
2022/04/16 05:13:40;;;;;;;3.93;3.20;;;;;;;;;;5034621;28;20840;-63
2022/04/16 05:16:07;;;;;;;4.57;3.40;;;;;;;;;;5034523;28;20794;-63
2022/04/16 05:18:33;;;;;;;4.10;3.30;;;;;;;;;;5034652;28;20417;-74
2022/04/16 05:20:59;;;;;;;6.23;3.60;;;;;;;;;;5034283;28;20430;-68
2022/04/16 05:23:25;;;;;;;3.60;3.27;;;;;;;;;;5034538;28;20886;-72
2022/04/16 05:25:51;;;;;;;4.37;3.50;;;;;;;;;;5034675;28;20403;-70
2022/04/16 05:28:17;;;;;;;4.23;3.83;;;;;;;;;;5034329;28;20414;-68
2022/04/16 05:30:48;;;;;;;4.60;3.90;;;;;;;;;;5034285;28;20411;-63
2022/04/16 05:36:02;;;;;;;5.83;3.70;;;;;;;;;;5034450;28;20437;-66
2022/04/16 05:38:28;;;;;;;4.23;3.63;;;;;;;;;;5034208;28;20883;-66
2022/04/16 05:40:54;;;;;;;4.77;3.60;;;;;;;;;;5034090;28;20553;-63
2022/04/16 05:43:20;;;;;;;4.60;3.80;;;;;;;;;;5034005;28;20409;-64
2022/04/16 05:45:46;;;;;;;3.70;3.10;;;;;;;;;;5034024;28;20418;-73
2022/04/16 05:48:12;;;;;;;3.47;3.00;;;;;;;;;;5033948;28;20405;-73
2022/04/16 05:50:38;;;;;;;3.63;3.30;;;;;;;;;;5033890;28;20510;-73
2022/04/16 05:53:09;;;;;;;5.27;3.70;;;;;;;;;;5033948;28;20464;-73
2022/04/16 05:55:35;;;;;;;4.23;3.30;;;;;;;;;;5033834;28;20418;-73
2022/04/16 05:58:01;;;;;;;4.80;3.50;;;;;;;;;;5033501;28;20520;-73
2022/04/16 06:00:28;;;;;;;4.70;3.67;;;;;;;;;;5033646;28;20815;-71
2022/04/16 06:02:55;;;;;;;4.40;3.60;;;;;;;;;;5033733;28;20473;-72
2022/04/16 06:05:22;;;;;;;4.23;3.20;;;;;;;;;;5033496;28;20462;-67
2022/04/16 06:07:48;;;;;;;5.57;3.40;;;;;;;;;;5033643;28;20398;-74
2022/04/16 06:10:14;;;;;;;4.50;3.37;;;;;;;;;;5033464;28;20776;-72
2022/04/16 06:12:43;;;;;;;5.70;3.80;;;;;;;;;;5033635;28;20402;-71
2022/04/16 06:15:09;;;;;;;3.60;3.00;;;;;;;;;;5033539;28;20421;-73
2022/04/16 06:17:35;;;;;;;5.60;3.83;;;;;;;;;;5033321;28;20573;-74
2022/04/16 06:20:03;;;;;;;3.97;3.23;;;;;;;;;;5033279;28;20513;-72
2022/04/16 06:22:30;;;;;;;4.60;3.00;;;;;;;;;;5033360;28;20878;-70
2022/04/16 06:24:56;;;;;;;4.60;3.50;;;;;;;;;;5033412;28;20399;-70
2022/04/16 06:27:22;;;;;;;5.80;4.17;;;;;;;;;;5033270;28;20421;-71
2022/04/16 06:29:48;;;;;;;4.30;3.43;;;;;;;;;;5033350;28;20517;-63
2022/04/16 06:32:14;;;;;;;6.90;4.03;;;;;;;;;;5034025;28;20410;-63
2022/04/16 06:34:40;;;;;;;3.70;3.40;;;;;;;;;;5033374;28;20390;-73
2022/04/16 06:37:06;;;;;;;5.20;3.90;;;;;;;;;;5033208;28;20464;-65
2022/04/16 06:39:32;;;;;;;4.10;3.70;;;;;;;;;;5033169;28;20398;-73
2022/04/16 06:41:58;;;;;;;5.10;3.60;;;;;;;;;;5033055;28;20434;-62
2022/04/16 06:44:24;;;;;;;7.67;3.90;;;;;;;;;;5033190;28;20437;-62
2022/04/16 06:46:52;;;;;;;4.57;3.53;;;;;;;;;;5033118;28;20414;-63
2022/04/16 06:49:18;;;;;;;5.50;4.20;;;;;;;;;;5032967;28;20453;-73
2022/04/16 06:51:44;;;;;;;7.17;4.60;;;;;;;;;;5033125;28;20443;-64
2022/04/16 06:54:10;;;;;;;4.10;3.53;;;;;;;;;;5031865;28;20806;-63
2022/04/16 06:56:36;;;;;;;6.03;4.00;;;;;;;;;;5032938;28;20524;-63
2022/04/16 06:59:02;;;;;;;5.67;4.00;;;;;;;;;;5032918;28;20425;-63
2022/04/16 07:01:28;;;;;;;5.90;4.03;;;;;;;;;;5032779;28;20414;-68
2022/04/16 07:03:54;;;;;;;5.50;4.20;;;;;;;;;;5033023;28;20411;-63
2022/04/16 07:06:20;;;;;;;5.13;4.17;;;;;;;;;;5032780;28;20539;-63
2022/04/16 07:08:46;;;;;;;6.00;4.03;;;;;;;;;;5032913;28;20413;-63
2022/04/16 07:11:12;;;;;;;6.40;4.30;;;;;;;;;;5036760;28;20402;-68
2022/04/16 07:13:38;;;;;;;4.73;4.10;;;;;;;;;;5036851;28;20410;-63
2022/04/16 07:16:04;;;;;;;4.80;3.67;;;;;;;;;;5036712;28;20425;-72
2022/04/16 07:18:30;;;;;;;5.10;3.93;;;;;;;;;;5036880;28;20426;-74
2022/04/16 07:20:56;;;;;;;5.50;3.97;;;;;;;;;;5036466;28;20438;-63
2022/04/16 07:23:22;;;;;;;5.80;4.27;;;;;;;;;;5036984;28;20417;-66
2022/04/16 07:25:48;;;;;;;5.93;4.13;;;;;;;;;;5036614;28;20406;-73
2022/04/16 07:28:21;;;;;;;5.63;4.13;;;;;;;;;;5036598;28;20483;-74
2022/04/16 07:30:48;;;;;;;6.17;4.47;;;;;;;;;;5036533;28;20421;-63
2022/04/16 07:33:14;;;;;;;6.93;4.20;;;;;;;;;;5036454;28;20468;-63
2022/04/16 07:35:40;;;;;;;4.00;3.53;;;;;;;;;;5036429;28;20406;-64
2022/04/16 07:38:06;;;;;;;5.93;4.10;;;;;;;;;;5036325;28;20480;-63
2022/04/16 07:40:34;;;;;;;6.07;4.50;;;;;;;;;;5036226;28;20409;-63
2022/04/16 07:43:00;;;;;;;7.90;4.33;;;;;;;;;;5036357;28;20406;-63
2022/04/16 07:45:26;;;;;;;6.73;4.70;;;;;;;;;;5036233;28;20894;-74
2022/04/16 07:47:52;;;;;;;6.07;4.47;;;;;;;;;;5036255;28;20410;-63
2022/04/16 07:50:19;;;;;;;8.83;5.13;;;;;;;;;;5035967;28;20440;-63
2022/04/16 07:52:45;;;;;;;7.70;4.60;;;;;;;;;;5036260;28;20410;-74
2022/04/16 07:55:11;;;;;;;5.60;4.27;;;;;;;;;;5036102;28;20945;-71
2022/04/16 07:57:37;;;;;;;7.60;4.63;;;;;;;;;;5035826;28;20569;-73
2022/04/16 08:00:04;;;;;;;7.70;4.73;;;;;;;;;;5035940;28;20509;-63
2022/04/16 08:02:30;;;;;;;7.70;5.03;;;;;;;;;;5035926;28;20414;-71
2022/04/16 08:04:56;;;;;;;7.90;4.77;;;;;;;;;;5035627;28;20458;-72
2022/04/16 08:07:23;;;;;;;6.70;5.00;;;;;;;;;;5036008;28;20913;-63
2022/04/16 08:09:48;;;;;;;7.23;4.80;;;;;;;;;;5035698;28;20441;-63
2022/04/16 08:12:14;;;;;;;7.17;4.97;;;;;;;;;;5035748;28;20450;-71
2022/04/16 08:14:40;;;;;;;7.70;5.03;;;;;;;;;;5035635;28;20497;-63
2022/04/16 08:17:07;;;;;;;7.70;4.90;;;;;;;;;;5035580;28;20469;-74
2022/04/16 08:19:33;;;;;;;9.17;5.57;;;;;;;;;;5035612;28;20423;-62
2022/04/16 08:21:59;;;;;;;7.17;5.37;;;;;;;;;;5034041;28;20417;-71
2022/04/16 08:26:58;;;;;;;8.57;5.90;;;;;;;;;;5035550;28;20406;-64
2022/04/16 08:29:24;;;;;;;8.17;5.37;;;;;;;;;;5035503;28;20410;-74
2022/04/16 08:31:50;;;;;;;8.90;5.20;;;;;;;;;;5034048;28;20826;-71
2022/04/16 08:34:16;;;;;;;8.70;5.97;;;;;;;;;;5035427;28;20967;-63
2022/04/16 08:36:42;;;;;;;9.47;5.47;;;;;;;;;;5035301;28;20466;-72
2022/04/16 08:39:08;;;;;;;11.77;5.67;;;;;;;;;;5035204;28;20407;-63
2022/04/16 08:41:34;;;;;;;7.63;5.17;;;;;;;;;;5034972;28;20743;-64
2022/04/16 08:44:00;;;;;;;7.90;5.10;;;;;;;;;;5035231;28;20411;-64
2022/04/16 08:46:28;;;;;;;8.20;5.63;;;;;;;;;;5035047;28;20441;-65
2022/04/16 08:48:55;;;;;;;8.37;5.33;;;;;;;;;;5034912;28;20766;-72
2022/04/16 08:51:21;;;;;;;7.23;5.27;;;;;;;;;;5034860;28;20415;-67
2022/04/16 08:53:46;;;;;;;8.60;5.60;;;;;;;;;;5035128;28;20425;-73
2022/04/16 08:56:13;;;;;;;7.77;5.50;;;;;;;;;;5034957;28;20894;-74
2022/04/16 08:58:39;;;;;;;7.90;5.23;;;;;;;;;;5034922;28;20858;-64
2022/04/16 09:01:05;;;;;;;7.43;5.27;;;;;;;;;;5034715;28;20757;-66
2022/04/16 09:03:38;;;;;;;7.70;5.60;;;;;;;;;;5034877;28;20411;-65
2022/04/16 09:06:05;;;;;;;7.60;5.70;;;;;;;;;;5034506;28;20466;-69
2022/04/16 09:08:32;;;;;;;7.17;4.63;;;;;;;;;;5034815;28;20438;-74
2022/04/16 09:11:05;;;;;;;10.00;5.23;;;;;;;;;;5034561;28;20391;-72
2022/04/16 09:13:31;;;;;;;8.67;5.73;;;;;;;;;;5034663;28;20417;-69
2022/04/16 09:16:06;;;;;;;9.70;6.30;;;;;;;;;;5034550;28;20399;-72
2022/04/16 09:18:44;;;;;;;10.30;7.17;;;;;;;;;;5034635;28;20430;-73
2022/04/16 09:21:12;;;;;;;8.80;5.93;;;;;;;;;;5033092;28;20521;-73
2022/04/16 09:23:39;;;;;;;9.77;6.10;;;;;;;;;;5034580;28;20398;-71
2022/04/16 09:26:05;;;;;;;12.03;7.30;;;;;;;;;;5033053;28;20410;-74
2022/04/16 09:28:31;;;;;;;11.33;7.33;;;;;;;;;;5034393;28;20407;-70
2022/04/16 09:30:57;;;;;;;11.77;6.53;;;;;;;;;;5034254;28;20901;-73
2022/04/16 09:33:23;;;;;;;11.80;7.57;;;;;;;;;;5033865;28;20406;-73
2022/04/16 09:35:53;;;;;;;8.63;6.30;;;;;;;;;;5034329;28;20402;-72
2022/04/16 09:38:19;;;;;;;11.97;6.97;;;;;;;;;;5034078;28;21073;-74
2022/04/16 09:40:46;;;;;;;9.90;7.00;;;;;;;;;;5034031;28;20449;-70
2022/04/16 09:43:12;;;;;;;12.07;7.67;;;;;;;;;;5033952;28;20423;-74
2022/04/16 09:45:39;;;;;;;9.47;6.80;;;;;;;;;;5032826;28;20422;-74
2022/04/16 09:48:09;;;;;;;14.43;7.83;;;;;;;;;;5034026;28;20425;-69
2022/04/16 09:50:36;;;;;;;12.60;7.17;;;;;;;;;;5033818;28;20434;-74
2022/04/16 09:53:02;;;;;;;10.63;7.60;;;;;;;;;;5034004;28;20469;-74
2022/04/16 09:55:29;;;;;;;11.43;7.30;;;;;;;;;;5032498;28;20422;-67
2022/04/16 09:58:02;;;;;;;11.27;7.77;;;;;;;;;;5033694;28;20480;-71
2022/04/16 10:00:28;;;;;;;11.53;7.17;;;;;;;;;;5033627;28;21011;-73
2022/04/16 10:02:54;;;;;;;11.30;7.03;;;;;;;;;;5033896;28;20394;-66
2022/04/16 10:05:24;;;;;;;9.37;6.50;;;;;;;;;;5033552;28;20807;-74
2022/04/16 10:07:54;;;;;;;10.20;6.90;;;;;;;;;;5033665;28;20407;-69
2022/04/16 10:10:28;;;;;;;11.27;7.50;;;;;;;;;;5033632;28;20455;-74
2022/04/16 10:12:59;;;;;;;9.50;6.10;;;;;;;;;;5033538;28;20792;-73
2022/04/16 10:15:27;;;;;;;8.57;6.17;;;;;;;;;;5033503;28;20439;-65
2022/04/16 10:17:53;;;;;;;9.27;6.70;;;;;;;;;;5033312;28;20968;-73
2022/04/16 10:20:20;;;;;;;10.83;6.90;;;;;;;;;;5033343;28;20434;-71
2022/04/16 10:22:54;;;;;;;9.07;6.10;;;;;;;;;;5033376;28;20493;-72
2022/04/16 10:25:34;;;;;;;8.63;6.43;;;;;;;;;;5033453;28;20415;-71
2022/04/16 10:28:25;;;;;;;7.57;5.53;;;;;;;;;;5033273;28;20969;-74
2022/04/16 10:30:53;;;;;;;7.77;5.63;;;;;;;;;;5033362;28;20415;-72
2022/04/16 10:33:23;;;;;;;9.07;6.07;;;;;;;;;;5033298;28;20407;-67
2022/04/16 10:35:50;;;;;;;11.40;7.30;;;;;;;;;;5033278;28;20414;-67
2022/04/16 10:38:26;;;;;;;9.90;7.03;;;;;;;;;;5033178;28;20481;-74
2022/04/16 10:40:58;;;;;;;10.77;5.97;;;;;;;;;;5033111;28;20481;-67
2022/04/16 10:43:34;;;;;;;10.10;6.23;;;;;;;;;;5032823;28;20414;-70
2022/04/16 10:46:07;;;;;;;10.73;6.37;;;;;;;;;;5032840;28;21352;-75
2022/04/16 10:48:33;;;;;;;9.20;6.13;;;;;;;;;;5032998;28;20394;-71
2022/04/16 10:51:00;;;;;;;9.80;6.10;;;;;;;;;;5033101;28;20453;-73
2022/04/16 10:53:52;;;;;;;10.33;6.37;;;;;;;;;;5031781;28;20413;-75
2022/04/16 10:56:22;;;;;;;10.07;6.57;;;;;;;;;;5031342;28;20505;-69
2022/04/16 10:59:00;;;;;;;8.07;5.80;;;;;;;;;;5033006;28;20442;-74
2022/04/16 11:01:27;;;;;;;7.63;5.50;;;;;;;;;;5032771;28;20501;-73
2022/04/16 11:03:54;;;;;;;8.63;6.00;;;;;;;;;;5033017;28;20493;-74
2022/04/16 11:06:20;;;;;;;8.93;5.30;;;;;;;;;;5032782;28;20466;-74
2022/04/16 11:08:47;;;;;;;7.10;5.47;;;;;;;;;;5032937;28;20975;-75
2022/04/16 11:11:14;;;;;;;8.20;5.30;;;;;;;;;;5032871;28;20418;-73
2022/04/16 11:13:44;;;;;;;9.07;5.23;;;;;;;;;;5032867;28;20458;-69
2022/04/16 11:16:10;;;;;;;6.90;5.20;;;;;;;;;;5032902;28;20893;-73
2022/04/16 11:18:42;;;;;;;8.20;5.33;;;;;;;;;;5032807;28;20449;-73
2022/04/16 11:21:08;;;;;;;6.73;4.90;;;;;;;;;;5032674;28;20476;-73
2022/04/16 11:23:45;;;;;;;8.23;4.30;;;;;;;;;;5032883;28;20898;-71
2022/04/16 11:34:30;;;;;;;7.97;4.50;;;;;;;;;;5033019;28;20421;-73
2022/04/16 11:36:57;;;;;;;7.27;4.90;;;;;;;;;;5032535;28;20789;-72
2022/04/16 11:39:24;;;;;;;6.20;4.73;;;;;;;;;;5032591;28;20418;-76
2022/04/16 11:41:52;;;;;;;7.20;5.27;;;;;;;;;;5032544;28;20497;-73
2022/04/16 11:44:28;;;;;;;6.87;4.93;;;;;;;;;;5032581;28;20402;-74
2022/04/16 11:46:54;;;;;;;4.40;3.70;;;;;;;;;;5032723;28;20410;-75
2022/04/16 11:49:20;;;;;;;5.87;5.00;;;;;;;;;;5032393;28;20433;-75
2022/04/16 11:51:46;;;;;;;7.67;4.93;;;;;;;;;;5032476;28;20941;-74
2022/04/16 11:54:12;;;;;;;6.47;4.33;;;;;;;;;;5032577;28;20476;-74
2022/04/16 11:56:38;;;;;;;7.53;4.80;;;;;;;;;;5035057;28;20584;-69
2022/04/16 11:59:04;;;;;;;7.13;5.37;;;;;;;;;;5036072;28;20402;-74
2022/04/16 12:01:30;;;;;;;6.70;4.97;;;;;;;;;;5035896;28;20407;-73
2022/04/16 12:04:06;;;;;;;7.37;5.13;;;;;;;;;;5036005;28;20433;-74
2022/04/16 12:06:35;;;;;;;6.60;4.80;;;;;;;;;;5035747;28;20500;-73
2022/04/16 12:09:01;;;;;;;5.83;4.57;;;;;;;;;;5035845;28;20581;-72
2022/04/16 12:11:28;;;;;;;6.37;4.50;;;;;;;;;;5035862;28;20406;-74
2022/04/16 12:13:58;;;;;;;5.70;4.67;;;;;;;;;;5035906;28;20489;-74
2022/04/16 12:16:24;;;;;;;6.40;5.00;;;;;;;;;;5035780;28;20413;-74
2022/04/16 12:18:50;;;;;;;5.87;4.10;;;;;;;;;;5035540;28;20582;-75
2022/04/16 12:21:18;;;;;;;5.67;4.00;;;;;;;;;;5035374;28;20438;-70
2022/04/16 12:23:44;;;;;;;5.27;4.37;;;;;;;;;;5035688;28;20885;-70
2022/04/16 12:26:11;;;;;;;7.97;5.67;;;;;;;;;;5035647;28;20403;-73
2022/04/16 12:28:43;;;;;;;8.80;5.80;;;;;;;;;;5035602;28;20825;-75
2022/04/16 12:31:09;;;;;;;6.40;4.50;;;;;;;;;;5035433;28;20764;-72
2022/04/16 12:33:35;;;;;;;6.27;4.60;;;;;;;;;;5035472;28;20402;-74
2022/04/16 12:36:01;;;;;;;5.50;4.40;;;;;;;;;;5035282;28;20398;-75
2022/04/16 12:38:27;;;;;;;7.10;5.23;;;;;;;;;;5035268;28;20461;-74
2022/04/16 12:41:06;;;;;;;7.23;5.50;;;;;;;;;;5035091;28;20518;-70
2022/04/16 12:43:32;;;;;;;5.80;4.97;;;;;;;;;;5035219;28;20418;-73
2022/04/16 12:45:58;;;;;;;5.50;4.30;;;;;;;;;;5035293;28;20403;-64
2022/04/16 12:48:24;;;;;;;6.03;4.70;;;;;;;;;;5035081;28;20890;-73
2022/04/16 12:50:50;;;;;;;5.17;4.67;;;;;;;;;;5034852;28;20437;-72
2022/04/16 12:53:16;;;;;;;6.33;4.60;;;;;;;;;;5035011;28;20429;-70
2022/04/16 12:55:42;;;;;;;5.90;4.27;;;;;;;;;;5034628;28;20461;-74
2022/04/16 12:58:08;;;;;;;7.63;4.83;;;;;;;;;;5034792;28;20886;-74
2022/04/16 13:00:34;;;;;;;5.07;4.33;;;;;;;;;;5034842;28;20407;-67
2022/04/16 13:03:00;;;;;;;5.80;4.07;;;;;;;;;;5034885;28;20959;-74
2022/04/16 13:05:29;;;;;;;4.77;3.60;;;;;;;;;;5034575;28;20493;-73
2022/04/16 13:07:58;;;;;;;5.90;4.53;;;;;;;;;;5034058;28;20816;-73
2022/04/16 13:10:24;;;;;;;5.87;4.40;;;;;;;;;;5034646;28;20406;-73
2022/04/16 13:12:50;;;;;;;6.10;4.57;;;;;;;;;;5034650;28;20407;-73
2022/04/16 13:15:16;;;;;;;5.30;4.60;;;;;;;;;;5034724;28;20406;-74
2022/04/16 13:17:42;;;;;;;5.87;4.40;;;;;;;;;;5033299;28;20995;-74
2022/04/16 13:20:12;;;;;;;6.37;4.90;;;;;;;;;;5034443;28;20418;-74
2022/04/16 13:22:38;;;;;;;5.33;4.07;;;;;;;;;;5034320;28;20418;-74
2022/04/16 13:25:05;;;;;;;6.07;4.80;;;;;;;;;;5034433;28;20402;-74
2022/04/16 13:27:31;;;;;;;5.40;4.47;;;;;;;;;;5034454;28;20418;-74
2022/04/16 13:29:57;;;;;;;5.20;4.70;;;;;;;;;;5034278;28;20886;-75
2022/04/16 13:32:23;;;;;;;4.50;3.80;;;;;;;;;;5034268;28;20421;-73
2022/04/16 13:34:49;;;;;;;6.67;4.20;;;;;;;;;;5034234;28;20390;-75
2022/04/16 13:37:15;;;;;;;5.23;4.03;;;;;;;;;;5034140;28;20484;-75
2022/04/16 13:42:26;;;;;;;5.10;4.60;;;;;;;;;;5034113;28;20932;-75
2022/04/16 13:44:53;;;;;;;5.03;4.00;;;;;;;;;;5034134;28;20461;-72
2022/04/16 13:47:24;;;;;;;6.60;5.70;;;;;;;;;;5034000;28;20398;-74
2022/04/16 13:49:50;;;;;;;5.00;3.63;;;;;;;;;;5033809;28;20434;-74
2022/04/16 13:52:16;;;;;;;7.73;4.87;;;;;;;;;;5033965;28;20425;-75
2022/04/16 13:54:42;;;;;;;5.67;4.50;;;;;;;;;;5032680;28;20413;-74
2022/04/16 13:57:11;;;;;;;6.33;4.10;;;;;;;;;;5033738;28;20480;-76
2022/04/16 13:59:37;;;;;;;5.57;4.30;;;;;;;;;;5033654;28;20767;-76
2022/04/16 14:02:04;;;;;;;4.50;3.90;;;;;;;;;;5032422;28;20509;-69
2022/04/16 14:05:42;;;;;;;4.67;3.73;;;;;;;;;;5033578;28;20890;-74
2022/04/16 14:07:16;;;;;;;8.87;4.27;;;;;;;;;;5033557;28;20521;-71
2022/04/16 14:09:42;;;;;;;4.47;3.47;;;;;;;;;;5033620;28;20418;-75
2022/04/16 14:12:08;;;;;;;4.20;3.80;;;;;;;;;;5033632;28;20426;-76
2022/04/16 14:14:34;;;;;;;4.90;3.97;;;;;;;;;;5033534;28;20403;-69
2022/04/16 14:17:00;;;;;;;6.17;4.07;;;;;;;;;;5033397;28;20519;-73
2022/04/16 14:19:26;;;;;;;5.37;4.00;;;;;;;;;;5033238;28;20434;-72
2022/04/16 14:21:54;;;;;;;4.70;3.70;;;;;;;;;;5033192;28;20489;-77
2022/04/16 14:24:23;;;;;;;4.13;3.73;;;;;;;;;;5033447;28;20959;-76
2022/04/16 14:26:49;;;;;;;4.83;4.17;;;;;;;;;;5033298;28;20414;-69
2022/04/16 14:29:17;;;;;;;5.63;4.30;;;;;;;;;;5033348;28;20407;-75
2022/04/16 14:31:44;;;;;;;4.70;4.17;;;;;;;;;;5033348;28;20395;-75
2022/04/16 14:34:10;;;;;;;4.20;3.57;;;;;;;;;;5033341;28;20908;-72
2022/04/16 14:36:37;;;;;;;5.20;4.20;;;;;;;;;;5033253;28;20944;-74
2022/04/16 14:39:03;;;;;;;8.40;4.60;;;;;;;;;;5033242;28;20414;-75
2022/04/16 14:41:29;;;;;;;5.70;4.57;;;;;;;;;;5033113;28;20453;-76
2022/04/16 14:43:59;;;;;;;5.03;3.80;;;;;;;;;;5033240;28;20509;-75
2022/04/16 14:46:25;;;;;;;4.00;3.60;;;;;;;;;;5033013;28;20398;-68
2022/04/16 14:48:55;;;;;;;4.80;3.90;;;;;;;;;;5032971;28;20444;-75
2022/04/16 14:51:23;;;;;;;4.60;4.20;;;;;;;;;;5033000;28;20482;-67
2022/04/16 14:53:49;;;;;;;4.70;3.77;;;;;;;;;;5033213;28;20403;-64
2022/04/16 14:56:15;;;;;;;4.77;3.90;;;;;;;;;;5033059;28;21011;-73
2022/04/16 14:58:41;;;;;;;4.43;3.60;;;;;;;;;;5032892;28;20462;-75
2022/04/16 15:01:07;;;;;;;4.17;3.70;;;;;;;;;;5032908;28;20441;-75
2022/04/16 15:03:33;;;;;;;3.80;3.50;;;;;;;;;;5033028;28;20410;-74
2022/04/16 15:06:00;;;;;;;4.50;3.30;;;;;;;;;;5032833;28;20457;-74
2022/04/16 15:08:26;;;;;;;4.23;3.60;;;;;;;;;;5032954;28;20769;-72
2022/04/16 15:10:52;;;;;;;3.60;3.30;;;;;;;;;;5032841;28;20417;-73